Time;durP1;ratioP1;P1;durP2;ratioP2;P2;SDS_P1;SDS_P2;PMS_P1;PMS_P2;Temp;Humidity;BMP_temperature;BMP_pressure;BME280_temperature;BME280_humidity;BME280_pressure;Samples;Min_cycle;Max_cycle;Signal;HPM_P1;HPM_P2
2024/01/25 00:01:12;;;;;;;17.38;2.33;;;11.60;99.90;;;;;;5011699;28;20033;-20
2024/01/25 00:03:38;;;;;;;14.23;2.60;;;11.60;99.90;;;;;;5013004;28;20033;-19
2024/01/25 00:06:10;;;;;;;11.07;2.43;;;11.50;99.90;;;;;;4998517;28;20045;-19
2024/01/25 00:08:36;;;;;;;9.32;1.75;;;11.50;99.90;;;;;;4984279;28;20048;-20
2024/01/25 00:11:02;;;;;;;8.43;2.20;;;11.50;99.90;;;;;;5012691;28;20021;-19
2024/01/25 00:13:28;;;;;;;11.10;2.10;;;11.50;99.90;;;;;;5008821;28;20726;-19
2024/01/25 00:15:54;;;;;;;11.68;2.00;;;11.50;99.90;;;;;;5010362;28;20029;-18
2024/01/25 00:18:20;;;;;;;13.63;2.60;;;11.40;99.90;;;;;;5013944;28;20038;-19
2024/01/25 00:20:46;;;;;;;7.47;1.77;;;11.40;99.90;;;;;;4997767;28;20034;-19
2024/01/25 00:23:12;;;;;;;10.27;1.67;;;9.10;99.90;;;;;;5012597;28;20029;-18
2024/01/25 00:25:37;;;;;;;9.95;1.70;;;11.30;99.90;;;;;;4994953;28;20509;-20
2024/01/25 00:28:03;;;;;;;7.63;1.57;;;11.30;99.90;;;;;;5008577;28;20083;-23
2024/01/25 00:30:30;;;;;;;8.50;1.70;;;11.20;99.90;;;;;;5013983;28;20541;-20
2024/01/25 00:50:43;;;;;;;10.63;1.73;;;10.90;99.90;;;;;;4248363;28;20200;-21
2024/01/25 00:53:09;;;;;;;9.00;2.05;;;10.90;99.90;;;;;;4996815;28;20048;-19
2024/01/25 00:55:35;;;;;;;10.57;1.80;;;10.80;99.90;;;;;;5013761;28;20030;-18
2024/01/25 00:58:02;;;;;;;11.00;1.73;;;10.80;99.90;;;;;;5010204;28;20041;-20
2024/01/25 01:00:28;;;;;;;7.93;2.20;;;10.70;99.90;;;;;;4996855;28;20521;-21
2024/01/25 01:02:54;;;;;;;9.45;1.75;;;10.70;99.90;;;;;;5012744;28;20061;-22
2024/01/25 01:05:20;;;;;;;14.73;2.07;;;10.60;99.90;;;;;;4992895;28;20319;-20
2024/01/25 01:07:46;;;;;;;13.10;2.05;;;10.60;99.90;;;;;;5012506;28;20117;-24
2024/01/25 01:10:14;;;;;;;9.68;1.98;;;10.60;99.90;;;;;;4979050;28;20045;-21
2024/01/25 01:12:39;;;;;;;12.93;2.75;;;10.60;99.90;;;;;;4993024;28;20418;-22
2024/01/25 01:15:05;;;;;;;10.07;1.83;;;10.50;99.90;;;;;;5013521;28;20148;-23
2024/01/25 01:17:31;;;;;;;8.18;1.77;;;10.50;99.90;;;;;;5010791;28;20068;-21
2024/01/25 01:19:57;;;;;;;12.95;2.00;;;10.50;99.90;;;;;;4981881;28;20073;-24
2024/01/25 01:22:23;;;;;;;8.30;1.97;;;10.40;99.90;;;;;;5013136;28;20044;-22
2024/01/25 01:24:48;;;;;;;10.18;1.90;;;10.40;99.90;;;;;;5011297;28;20461;-35
2024/01/25 01:27:14;;;;;;;11.27;2.37;;;10.40;99.90;;;;;;5010585;28;20421;-24
2024/01/25 01:29:41;;;;;;;10.15;1.65;;;10.30;99.90;;;;;;5011600;28;20502;-21
2024/01/25 01:32:06;;;;;;;10.03;1.70;;;10.30;99.90;;;;;;4992939;28;20029;-24
2024/01/25 01:34:32;;;;;;;11.20;2.00;;;10.30;99.90;;;;;;4993417;28;20048;-26
2024/01/25 01:36:58;;;;;;;12.60;2.57;;;10.30;99.90;;;;;;5014675;28;20052;-22
2024/01/25 01:39:25;;;;;;;10.25;1.70;;;10.20;99.90;;;;;;5013000;28;20037;-20
2024/01/25 01:41:50;;;;;;;8.90;1.70;;;10.20;99.90;;;;;;5000236;28;20045;-22
2024/01/25 01:44:16;;;;;;;10.67;2.10;;;10.10;99.90;;;;;;5012660;28;20573;-22
2024/01/25 01:46:42;;;;;;;7.82;2.05;;;10.20;99.90;;;;;;5008638;28;20046;-22
2024/01/25 01:49:11;;;;;;;9.63;1.70;;;10.10;99.90;;;;;;4994885;28;20052;-19
2024/01/25 01:51:38;;;;;;;9.13;1.60;;;10.10;99.90;;;;;;5011499;28;20061;-24
2024/01/25 01:54:06;;;;;;;8.30;2.00;;;10.00;99.90;;;;;;5009224;28;20041;-21
2024/01/25 01:56:32;;;;;;;13.85;2.08;;;10.00;99.90;;;;;;5009242;28;20104;-21
2024/01/25 01:59:00;;;;;;;14.40;3.08;;;10.00;99.90;;;;;;5010371;28;20041;-23
2024/01/25 02:01:27;;;;;;;6.90;1.77;;;9.90;99.90;;;;;;5010699;28;20034;-23
2024/01/25 02:03:53;;;;;;;11.90;1.75;;;9.90;99.90;;;;;;5010884;28;20112;-23
2024/01/25 02:06:19;;;;;;;13.97;2.23;;;9.90;99.90;;;;;;5008375;28;20476;-25
2024/01/25 02:08:46;;;;;;;12.90;1.90;;;9.90;99.90;;;;;;4994197;28;20125;-21
2024/01/25 02:11:13;;;;;;;7.68;1.77;;;9.80;99.90;;;;;;5010763;28;20029;-23
2024/01/25 02:13:39;;;;;;;13.07;2.00;;;9.80;99.90;;;;;;5010988;28;20095;-24
2024/01/25 02:16:07;;;;;;;8.73;1.88;;;9.80;99.90;;;;;;5002389;28;20037;-22
2024/01/25 02:18:33;;;;;;;11.70;2.10;;;12.50;99.90;;;;;;5012088;28;20033;-22
2024/01/25 02:20:59;;;;;;;8.48;2.10;;;9.70;99.90;;;;;;5011399;28;20046;-22
2024/01/25 02:23:25;;;;;;;11.32;1.85;;;9.70;99.90;;;;;;5001660;28;20526;-20
2024/01/25 02:25:50;;;;;;;8.67;1.70;;;9.60;99.90;;;;;;5004288;28;20037;-24
2024/01/25 02:28:16;;;;;;;11.25;1.88;;;9.60;99.90;;;;;;5003676;28;20041;-22
2024/01/25 02:30:42;;;;;;;12.40;2.43;;;9.60;99.90;;;;;;5014472;28;20556;-27
2024/01/25 02:33:08;;;;;;;7.72;1.48;;;9.50;99.90;;;;;;5012536;28;20056;-24
2024/01/25 02:35:33;;;;;;;10.43;1.87;;;8.90;99.90;;;;;;5012785;28;20090;-21
2024/01/25 02:37:59;;;;;;;7.75;1.67;;;9.50;99.90;;;;;;5015815;28;20159;-22
2024/01/25 02:40:25;;;;;;;10.10;1.42;;;9.40;99.90;;;;;;5013652;28;20041;-21
2024/01/25 02:42:51;;;;;;;10.33;2.10;;;9.40;99.90;;;;;;5002198;28;20034;-23
2024/01/25 02:45:17;;;;;;;12.68;1.63;;;9.40;99.90;;;;;;5015445;28;20034;-21
2024/01/25 02:47:43;;;;;;;8.27;1.70;;;9.40;99.90;;;;;;4997427;28;20443;-24
2024/01/25 02:50:09;;;;;;;11.23;2.63;;;9.30;99.90;;;;;;5012190;28;20037;-21
2024/01/25 02:52:34;;;;;;;6.50;1.90;;;9.30;99.90;;;;;;5013389;28;20041;-22
2024/01/25 02:55:00;;;;;;;8.10;1.50;;;9.30;99.90;;;;;;5016774;28;20405;-23
2024/01/25 02:57:26;;;;;;;9.67;1.70;;;9.30;99.90;;;;;;5011344;28;20645;-22
2024/01/25 02:59:52;;;;;;;6.38;1.40;;;9.30;99.90;;;;;;5015084;28;20033;-21
2024/01/25 03:02:21;;;;;;;8.60;1.80;;;9.20;99.90;;;;;;4979018;28;20045;-22
2024/01/25 03:04:47;;;;;;;9.63;1.80;;;9.20;99.90;;;;;;5016201;28;20614;-23
2024/01/25 03:07:12;;;;;;;11.25;1.40;;;9.10;99.90;;;;;;4997061;28;20040;-21
2024/01/25 03:09:38;;;;;;;7.80;1.40;;;9.10;99.90;;;;;;4996967;28;20050;-23
2024/01/25 03:12:04;;;;;;;8.85;1.70;;;9.10;99.90;;;;;;5012435;28;20091;-25
2024/01/25 03:14:30;;;;;;;12.88;1.70;;;9.10;99.90;;;;;;5014976;28;20049;-21
2024/01/25 03:16:56;;;;;;;11.60;1.77;;;9.00;99.90;;;;;;5016591;28;20116;-24
2024/01/25 03:19:25;;;;;;;7.88;1.70;;;9.00;99.90;;;;;;4992660;28;20124;-24
2024/01/25 03:21:51;;;;;;;7.25;2.00;;;9.00;99.90;;;;;;5012545;28;20120;-22
2024/01/25 03:24:17;;;;;;;10.43;1.97;;;9.00;99.90;;;;;;5008563;28;20040;-20
2024/01/25 03:26:43;;;;;;;8.48;1.50;;;8.90;99.90;;;;;;4997706;28;20572;-21
2024/01/25 03:29:08;;;;;;;12.40;1.87;;;8.90;99.90;;;;;;5012071;28;20187;-25
2024/01/25 03:31:35;;;;;;;9.40;1.57;;;8.90;99.90;;;;;;5014171;28;20298;-21
2024/01/25 03:34:02;;;;;;;8.50;1.50;;;8.90;99.90;;;;;;5013704;28;20164;-21
2024/01/25 03:36:28;;;;;;;8.80;1.45;;;8.80;99.90;;;;;;4996422;28;20041;-20
2024/01/25 03:38:53;;;;;;;8.90;1.57;;;8.80;99.90;;;;;;4998681;28;20029;-22
2024/01/25 03:41:19;;;;;;;9.55;1.70;;;8.80;99.90;;;;;;5010763;28;20037;-21
2024/01/25 03:43:45;;;;;;;7.03;1.20;;;8.70;99.90;;;;;;4982739;28;20053;-23
2024/01/25 03:46:12;;;;;;;6.10;1.40;;;8.70;99.90;;;;;;5015590;28;20041;-21
2024/01/25 03:48:37;;;;;;;7.45;1.30;;;8.60;99.90;;;;;;5013706;28;20044;-21
2024/01/25 03:51:03;;;;;;;10.33;1.63;;;8.60;99.90;;;;;;5010598;28;20045;-24
2024/01/25 03:53:29;;;;;;;9.38;1.90;;;8.50;99.90;;;;;;5001249;28;20048;-20
2024/01/25 03:55:55;;;;;;;10.10;1.50;;;8.50;99.90;;;;;;5013011;28;20041;-22
2024/01/25 03:58:21;;;;;;;6.40;1.40;;;8.40;99.90;;;;;;5013783;28;20064;-21
2024/01/25 04:00:47;;;;;;;7.95;1.90;;;8.40;99.90;;;;;;4997549;28;20041;-20
2024/01/25 04:03:13;;;;;;;5.97;1.10;;;8.30;99.90;;;;;;5013987;28;20477;-21
2024/01/25 04:05:41;;;;;;;5.43;1.20;;;8.30;99.90;;;;;;5012827;28;20034;-24
2024/01/25 04:08:08;;;;;;;8.20;1.60;;;8.30;99.90;;;;;;5015692;28;20116;-23
2024/01/25 04:10:33;;;;;;;5.65;1.20;;;8.20;99.90;;;;;;5011089;28;20425;-22
2024/01/25 04:13:07;;;;;;;7.70;1.50;;;11.00;99.90;;;;;;5009425;28;20076;-21
2024/01/25 04:15:33;;;;;;;6.78;1.27;;;8.10;99.90;;;;;;5010759;28;20532;-22
2024/01/25 04:17:58;;;;;;;6.80;1.45;;;8.00;99.90;;;;;;4993975;28;20113;-22
2024/01/25 04:20:24;;;;;;;5.73;1.43;;;8.00;99.90;;;;;;4999287;28;20486;-25
2024/01/25 04:22:50;;;;;;;12.38;1.92;;;8.00;99.90;;;;;;5007993;28;20525;-25
2024/01/25 04:25:15;;;;;;;7.57;1.30;;;7.90;99.90;;;;;;5000220;28;20048;-21
2024/01/25 04:27:41;;;;;;;6.13;1.30;;;7.90;99.90;;;;;;5012630;28;20040;-23
2024/01/25 04:30:10;;;;;;;5.73;1.40;;;7.80;99.90;;;;;;5011294;28;20558;-25
2024/01/25 04:32:40;;;;;;;6.17;1.20;;;7.80;99.90;;;;;;5013605;28;20874;-20
2024/01/25 04:35:07;;;;;;;5.43;1.25;;;7.80;99.90;;;;;;5010806;28;20030;-18
2024/01/25 04:37:33;;;;;;;6.85;1.33;;;7.70;99.90;;;;;;5014179;28;20413;-17
2024/01/25 04:39:59;;;;;;;3.27;0.93;;;7.70;99.90;;;;;;5015732;28;20128;-19
2024/01/25 04:42:25;;;;;;;4.07;0.95;;;7.70;99.90;;;;;;5014821;28;20112;-18
2024/01/25 04:44:51;;;;;;;5.23;1.40;;;7.70;99.90;;;;;;5010383;28;20034;-18
2024/01/25 04:47:16;;;;;;;6.88;1.00;;;7.60;99.90;;;;;;5015255;28;20030;-19
2024/01/25 04:49:42;;;;;;;6.68;1.40;;;7.60;99.90;;;;;;5013001;28;20263;-20
2024/01/25 04:52:08;;;;;;;7.07;1.50;;;7.60;99.90;;;;;;5012045;28;20041;-18
2024/01/25 04:54:33;;;;;;;4.13;1.27;;;7.50;99.90;;;;;;4996375;28;20046;-20
2024/01/25 04:56:59;;;;;;;5.20;1.10;;;7.50;99.90;;;;;;5009137;28;20034;-18
2024/01/25 04:59:25;;;;;;;4.88;1.20;;;7.50;99.90;;;;;;4983049;28;20061;-19
2024/01/25 05:01:53;;;;;;;5.30;1.10;;;7.40;99.90;;;;;;5010886;28;20034;-20
2024/01/25 05:04:19;;;;;;;3.88;0.95;;;7.40;99.90;;;;;;4995488;28;21726;-18
2024/01/25 05:06:45;;;;;;;3.28;0.80;;;7.40;99.90;;;;;;5010631;28;20026;-20
2024/01/25 05:09:10;;;;;;;2.77;0.80;;;7.30;99.90;;;;;;5010698;28;20046;-20
2024/01/25 05:11:40;;;;;;;3.17;0.87;;;7.30;99.90;;;;;;5009785;28;20127;-19
2024/01/25 05:14:06;;;;;;;3.80;1.10;;;7.20;99.90;;;;;;5005444;28;20779;-19
2024/01/25 05:16:32;;;;;;;6.18;1.30;;;7.20;99.90;;;;;;4997558;28;20246;-19
2024/01/25 05:18:58;;;;;;;4.28;1.23;;;7.20;99.90;;;;;;4977242;28;20656;-18
2024/01/25 05:21:23;;;;;;;4.50;1.00;;;7.10;99.90;;;;;;5013285;28;20037;-20
2024/01/25 05:23:49;;;;;;;4.90;1.27;;;7.10;99.90;;;;;;5012650;28;20034;-19
2024/01/25 05:26:15;;;;;;;3.73;1.20;;;7.10;99.90;;;;;;5008959;28;20045;-21
2024/01/25 05:28:41;;;;;;;3.47;0.90;;;7.00;99.90;;;;;;5013303;28;20226;-19
2024/01/25 05:31:12;;;;;;;3.35;0.80;;;7.00;99.90;;;;;;4999836;28;20030;-20
2024/01/25 05:33:39;;;;;;;3.13;0.95;;;6.90;99.90;;;;;;5014478;28;20927;-19
2024/01/25 05:36:05;;;;;;;3.80;0.90;;;6.90;99.90;;;;;;4995240;28;20034;-19
2024/01/25 05:38:32;;;;;;;2.63;0.77;;;6.90;99.90;;;;;;4983264;28;20042;-20
2024/01/25 05:40:58;;;;;;;4.28;1.00;;;6.80;99.90;;;;;;5013832;28;20409;-21
2024/01/25 05:43:24;;;;;;;3.33;1.17;;;6.80;99.90;;;;;;4999036;28;20363;-21
2024/01/25 05:45:49;;;;;;;2.50;0.88;;;9.80;99.90;;;;;;5011143;28;20064;-23
2024/01/25 05:48:15;;;;;;;2.97;0.90;;;6.70;99.90;;;;;;5013885;28;20037;-24
2024/01/25 05:50:41;;;;;;;6.32;1.10;;;6.70;99.90;;;;;;5010234;28;20128;-21
2024/01/25 05:53:07;;;;;;;2.47;0.83;;;6.70;99.90;;;;;;4990204;28;20343;-21
2024/01/25 05:55:33;;;;;;;5.30;1.10;;;6.60;99.90;;;;;;4991337;28;20096;-20
2024/01/25 05:57:58;;;;;;;4.83;1.00;;;6.60;99.90;;;;;;4979646;28;20045;-20
2024/01/25 06:00:24;;;;;;;4.93;1.38;;;6.20;99.90;;;;;;4995201;28;20088;-20
2024/01/25 06:02:50;;;;;;;4.33;1.23;;;6.50;99.90;;;;;;4976697;28;20034;-24
2024/01/25 06:05:15;;;;;;;6.38;1.25;;;6.50;99.90;;;;;;4981646;28;20687;-23
2024/01/25 06:07:41;;;;;;;3.77;1.00;;;6.60;99.90;;;;;;4999342;28;20478;-23
2024/01/25 06:10:08;;;;;;;7.90;1.23;;;6.50;99.90;;;;;;4993181;28;20304;-25
2024/01/25 06:12:34;;;;;;;5.47;1.23;;;6.50;99.90;;;;;;4993661;28;20042;-22
2024/01/25 06:14:59;;;;;;;6.80;1.50;;;6.60;99.90;;;;;;4991943;28;20670;-24
2024/01/25 06:17:25;;;;;;;8.65;1.27;;;6.60;99.90;;;;;;4995374;28;20061;-23
2024/01/25 06:19:51;;;;;;;5.13;1.57;;;6.60;99.90;;;;;;4966096;28;20073;-21
2024/01/25 06:22:18;;;;;;;6.82;1.50;;;6.70;99.90;;;;;;4983204;28;20498;-21
2024/01/25 06:24:43;;;;;;;5.65;1.38;;;6.70;99.90;;;;;;4994958;28;20398;-24
2024/01/25 06:27:12;;;;;;;8.03;2.37;;;5.70;99.90;;;;;;4976639;28;20043;-21
2024/01/25 06:29:38;;;;;;;10.18;1.90;;;6.80;99.90;;;;;;4995054;28;20031;-23
2024/01/25 06:32:04;;;;;;;8.73;1.70;;;6.80;99.90;;;;;;4994385;28;20509;-20
2024/01/25 06:34:29;;;;;;;10.52;1.63;;;5.90;99.90;;;;;;4996847;28;20048;-26
2024/01/25 06:36:55;;;;;;;7.00;1.42;;;6.90;99.90;;;;;;4993782;28;20042;-21
2024/01/25 06:39:21;;;;;;;7.83;1.80;;;6.40;99.90;;;;;;4982500;28;20292;-23
2024/01/25 06:41:46;;;;;;;6.77;1.60;;;7.00;99.90;;;;;;4996404;28;20091;-22
2024/01/25 06:44:12;;;;;;;7.30;1.57;;;7.10;99.90;;;;;;4967377;28;20270;-21
2024/01/25 06:46:38;;;;;;;11.02;1.83;;;7.10;99.90;;;;;;4996349;28;20540;-23
2024/01/25 06:49:04;;;;;;;10.00;2.00;;;7.20;99.90;;;;;;4997263;28;20084;-23
2024/01/25 06:51:30;;;;;;;9.48;1.88;;;7.20;99.90;;;;;;4994234;28;20073;-20
2024/01/25 06:53:56;;;;;;;12.00;2.10;;;9.20;99.90;;;;;;4994510;28;20148;-20
2024/01/25 06:56:21;;;;;;;9.47;1.70;;;7.40;99.90;;;;;;4980665;28;20404;-19
2024/01/25 06:58:47;;;;;;;10.88;2.13;;;7.40;99.90;;;;;;4977753;28;20503;-19
2024/01/25 07:01:13;;;;;;;9.17;1.77;;;7.40;99.90;;;;;;4997818;28;20538;-21
2024/01/25 07:03:39;;;;;;;10.38;2.00;;;7.50;99.90;;;;;;4994062;28;20426;-23
2024/01/25 07:06:04;;;;;;;10.97;2.17;;;7.50;99.90;;;;;;4992880;28;20033;-25
2024/01/25 07:08:30;;;;;;;11.45;2.05;;;7.60;99.90;;;;;;4992986;28;20030;-22
2024/01/25 07:10:56;;;;;;;12.63;2.70;;;7.60;99.90;;;;;;4993754;28;20347;-22
2024/01/25 07:13:22;;;;;;;8.10;2.08;;;7.60;99.90;;;;;;4991290;28;20108;-22
2024/01/25 07:15:48;;;;;;;8.55;1.85;;;7.60;99.90;;;;;;4979169;28;20545;-22
2024/01/25 07:18:13;;;;;;;5.30;1.70;;;7.60;99.90;;;;;;4959649;28;20046;-25
2024/01/25 07:20:39;;;;;;;11.20;2.25;;;7.70;99.90;;;;;;4992298;28;20537;-21
2024/01/25 07:23:05;;;;;;;12.00;2.70;;;7.70;99.90;;;;;;4979993;28;20037;-22
2024/01/25 07:25:30;;;;;;;9.27;2.72;;;7.70;99.90;;;;;;4991018;28;20608;-24
2024/01/25 07:27:56;;;;;;;8.13;2.60;;;7.70;99.90;;;;;;4977139;28;20380;-23
2024/01/25 07:30:22;;;;;;;8.95;2.72;;;7.60;99.90;;;;;;4992786;28;20042;-20
2024/01/25 07:32:49;;;;;;;8.80;2.10;;;7.60;99.90;;;;;;4991139;28;20049;-24
2024/01/25 07:35:15;;;;;;;8.32;2.08;;;7.70;99.90;;;;;;4991411;28;20037;-21
2024/01/25 07:37:41;;;;;;;8.68;2.10;;;7.70;99.90;;;;;;4992062;28;20088;-24
2024/01/25 07:40:08;;;;;;;9.30;2.20;;;7.60;99.90;;;;;;4975802;28;20046;-22
2024/01/25 07:42:34;;;;;;;8.07;1.90;;;7.60;99.90;;;;;;4991024;28;20347;-24
2024/01/25 07:45:00;;;;;;;7.55;2.00;;;7.60;99.90;;;;;;4963325;28;20586;-24
2024/01/25 07:47:26;;;;;;;6.45;1.70;;;7.60;99.90;;;;;;4991346;28;20422;-22
2024/01/25 07:49:52;;;;;;;5.83;1.30;;;7.60;99.90;;;;;;4993986;28;20035;-23
2024/01/25 07:52:17;;;;;;;6.90;1.53;;;7.60;99.90;;;;;;5008893;28;20042;-23
2024/01/25 07:54:44;;;;;;;9.13;1.63;;;7.50;99.90;;;;;;5014326;28;20045;-20
2024/01/25 07:57:10;;;;;;;8.45;1.83;;;7.50;99.90;;;;;;5011468;28;20546;-24
2024/01/25 07:59:35;;;;;;;8.07;1.97;;;7.50;99.90;;;;;;5013522;28;20611;-22
2024/01/25 08:02:01;;;;;;;8.60;2.47;;;7.50;99.90;;;;;;4999448;28;20037;-24
2024/01/25 08:04:27;;;;;;;7.27;1.97;;;8.60;99.90;;;;;;5012477;28;20490;-21
2024/01/25 08:06:52;;;;;;;8.93;2.67;;;7.50;99.90;;;;;;4996871;28;20029;-21
2024/01/25 08:09:18;;;;;;;8.40;2.37;;;7.60;99.90;;;;;;5011626;28;20039;-24
2024/01/25 08:11:45;;;;;;;7.43;2.22;;;7.60;99.90;;;;;;5003518;28;20081;-20
2024/01/25 08:14:11;;;;;;;5.25;1.88;;;7.60;99.90;;;;;;5010668;28;20513;-22
2024/01/25 08:16:37;;;;;;;8.87;2.30;;;7.60;99.90;;;;;;5011962;28;20252;-22
2024/01/25 08:19:04;;;;;;;8.02;1.88;;;7.60;99.90;;;;;;5012409;28;20115;-23
2024/01/25 08:21:30;;;;;;;7.10;1.90;;;7.60;99.90;;;;;;4980282;28;20060;-23
2024/01/25 08:23:55;;;;;;;7.80;2.50;;;7.60;99.90;;;;;;4996057;28;20034;-21
2024/01/25 08:26:21;;;;;;;7.93;1.93;;;7.70;99.90;;;;;;4996246;28;20387;-24
2024/01/25 08:28:47;;;;;;;6.00;1.92;;;7.70;99.90;;;;;;4994220;28;21038;-24
2024/01/25 08:31:13;;;;;;;5.97;1.40;;;7.70;99.90;;;;;;5014822;28;20072;-24
2024/01/25 08:33:45;;;;;;;10.27;2.10;;;7.80;99.90;;;;;;4994676;28;20398;-22
2024/01/25 08:36:11;;;;;;;7.15;2.00;;;7.80;99.90;;;;;;5012787;28;20034;-21
2024/01/25 08:38:36;;;;;;;6.77;1.87;;;7.90;99.90;;;;;;5010358;28;20038;-22
2024/01/25 08:41:02;;;;;;;8.05;2.13;;;7.90;99.90;;;;;;5013473;28;20048;-29
2024/01/25 08:43:28;;;;;;;5.73;1.73;;;8.00;99.90;;;;;;4978666;28;20465;-23
2024/01/25 08:45:54;;;;;;;6.03;1.70;;;8.00;99.90;;;;;;5012009;28;20437;-23
2024/01/25 08:48:20;;;;;;;6.53;1.85;;;8.10;99.90;;;;;;5011169;28;20383;-25
2024/01/25 08:50:46;;;;;;;6.85;1.88;;;8.10;99.90;;;;;;5009832;28;20045;-21
2024/01/25 08:53:12;;;;;;;8.63;2.57;;;8.20;99.90;;;;;;4992546;28;20083;-21
2024/01/25 08:55:38;;;;;;;7.47;1.98;;;8.30;99.90;;;;;;5011660;28;20069;-22
2024/01/25 08:58:04;;;;;;;7.18;2.03;;;8.30;99.90;;;;;;5010621;28;20048;-21
2024/01/25 09:00:30;;;;;;;6.50;2.07;;;7.60;99.90;;;;;;5013582;28;20029;-22
2024/01/25 09:02:55;;;;;;;12.65;2.63;;;8.40;99.90;;;;;;5011478;28;20033;-21
2024/01/25 09:05:21;;;;;;;11.10;3.40;;;8.60;99.90;;;;;;5010903;28;20033;-21
2024/01/25 09:07:47;;;;;;;11.65;3.00;;;8.60;99.90;;;;;;5000547;28;20131;-23
2024/01/25 09:10:14;;;;;;;13.05;3.38;;;8.70;99.90;;;;;;4996532;28;20497;-21
2024/01/25 09:12:41;;;;;;;11.00;3.33;;;8.70;99.90;;;;;;5011882;28;20496;-19
2024/01/25 09:15:08;;;;;;;9.80;3.20;;;8.80;99.90;;;;;;4994448;28;20042;-19
2024/01/25 09:17:34;;;;;;;9.07;2.63;;;8.90;99.90;;;;;;5013470;28;20079;-20
2024/01/25 09:19:59;;;;;;;10.63;2.83;;;8.90;99.90;;;;;;4966126;28;20042;-20
2024/01/25 09:22:25;;;;;;;13.13;3.30;;;8.90;99.90;;;;;;5017087;28;20073;-22
2024/01/25 09:24:51;;;;;;;13.00;3.43;;;9.00;99.90;;;;;;4996362;28;20034;-21
2024/01/25 09:27:17;;;;;;;11.88;3.22;;;9.00;99.90;;;;;;5014904;28;20119;-21
2024/01/25 09:29:43;;;;;;;13.10;3.97;;;9.00;99.90;;;;;;5015059;28;20044;-24
2024/01/25 09:32:09;;;;;;;11.32;3.95;;;10.80;99.90;;;;;;4998296;28;20034;-18
2024/01/25 09:34:38;;;;;;;11.23;3.70;;;9.10;99.90;;;;;;5014419;28;20345;-19
2024/01/25 09:37:07;;;;;;;11.82;3.72;;;9.40;99.90;;;;;;5015383;28;20069;-20
2024/01/25 09:39:33;;;;;;;12.70;3.80;;;9.10;99.90;;;;;;4985696;28;20045;-19
2024/01/25 09:41:59;;;;;;;10.52;2.92;;;9.20;99.90;;;;;;5013729;28;20037;-22
2024/01/25 09:44:24;;;;;;;10.77;3.45;;;9.20;99.90;;;;;;4981971;28;20042;-20
2024/01/25 09:46:51;;;;;;;11.20;3.77;;;9.20;99.90;;;;;;5014350;28;20115;-19
2024/01/25 09:49:17;;;;;;;8.45;2.72;;;9.20;99.90;;;;;;5015105;28;20065;-20
2024/01/25 09:51:44;;;;;;;10.95;3.83;;;9.20;99.90;;;;;;4998090;28;20706;-19
2024/01/25 09:54:10;;;;;;;10.20;3.27;;;9.20;99.90;;;;;;4976011;28;20697;-18
2024/01/25 09:56:36;;;;;;;13.13;3.80;;;9.30;99.90;;;;;;4974412;28;20493;-19
2024/01/25 09:59:03;;;;;;;13.43;4.13;;;9.30;99.90;;;;;;4994712;28;20096;-19
2024/01/25 10:01:29;;;;;;;12.40;4.13;;;9.30;99.90;;;;;;4979021;28;20258;-19
2024/01/25 10:03:57;;;;;;;12.10;3.40;;;9.30;99.90;;;;;;4978459;28;20966;-19
2024/01/25 10:06:23;;;;;;;10.82;3.22;;;9.30;99.90;;;;;;4994537;28;20042;-21
2024/01/25 10:08:49;;;;;;;12.85;3.67;;;9.40;99.90;;;;;;4994763;28;20852;-19
2024/01/25 10:11:16;;;;;;;8.83;3.10;;;9.40;99.90;;;;;;4994808;28;20559;-20
2024/01/25 10:13:43;;;;;;;13.48;4.15;;;9.40;99.90;;;;;;4991663;28;20038;-20
2024/01/25 10:16:16;;;;;;;18.48;4.82;;;9.40;99.90;;;;;;4995616;28;20061;-20
2024/01/25 10:18:43;;;;;;;13.70;3.70;;;9.50;99.90;;;;;;4976891;28;20038;-21
2024/01/25 10:21:13;;;;;;;10.82;3.95;;;8.50;99.90;;;;;;4994215;28;20065;-20
2024/01/25 10:23:40;;;;;;;11.40;3.37;;;9.50;99.90;;;;;;4991308;28;20074;-20
2024/01/25 10:26:07;;;;;;;9.13;2.83;;;9.50;99.90;;;;;;4977859;28;20034;-20
2024/01/25 10:28:33;;;;;;;9.63;3.30;;;9.50;99.90;;;;;;4992171;28;20460;-18
2024/01/25 10:31:07;;;;;;;8.55;3.17;;;9.50;99.90;;;;;;4986716;28;20033;-19
2024/01/25 10:33:33;;;;;;;10.40;3.78;;;9.50;99.90;;;;;;4996580;28;20041;-20
2024/01/25 10:36:03;;;;;;;8.47;3.60;;;9.60;99.90;;;;;;4974451;28;20041;-20
2024/01/25 10:38:37;;;;;;;9.55;3.35;;;9.60;99.90;;;;;;4993941;28;20034;-18
2024/01/25 10:41:05;;;;;;;10.48;3.92;;;9.60;99.90;;;;;;4992304;28;20067;-19
2024/01/25 10:43:31;;;;;;;9.63;3.55;;;9.70;99.90;;;;;;4991607;28;20204;-22
2024/01/25 10:45:58;;;;;;;10.32;3.20;;;9.70;99.90;;;;;;4992330;28;20137;-19
2024/01/25 10:48:27;;;;;;;9.07;2.77;;;9.70;99.90;;;;;;4991422;28;20033;-19
2024/01/25 10:50:54;;;;;;;12.55;3.88;;;9.80;99.90;;;;;;4994697;28;20045;-21
2024/01/25 10:53:22;;;;;;;10.27;3.80;;;9.80;99.90;;;;;;4994582;28;20030;-23
2024/01/25 10:55:49;;;;;;;10.82;3.55;;;9.80;99.90;;;;;;4978765;28;20132;-24
2024/01/25 10:58:16;;;;;;;13.32;4.13;;;9.90;99.90;;;;;;5012218;28;20512;-22
2024/01/25 11:00:42;;;;;;;10.70;3.77;;;9.90;99.90;;;;;;5012710;28;20061;-21
2024/01/25 11:03:08;;;;;;;11.80;4.03;;;10.00;99.90;;;;;;4995047;28;20088;-19
2024/01/25 11:05:33;;;;;;;11.43;3.80;;;10.00;99.90;;;;;;5009312;28;20049;-19
2024/01/25 11:08:00;;;;;;;10.90;3.70;;;10.00;99.90;;;;;;5011431;28;20041;-21
2024/01/25 11:10:27;;;;;;;12.37;4.30;;;10.00;99.90;;;;;;5008722;28;20041;-20
2024/01/25 11:13:03;;;;;;;14.73;4.70;;;10.00;99.90;;;;;;4977970;28;20085;-19
2024/01/25 11:15:33;;;;;;;10.32;3.92;;;10.00;99.90;;;;;;5008838;28;20033;-21
2024/01/25 11:17:59;;;;;;;13.60;3.83;;;9.10;99.90;;;;;;5008690;28;20048;-19
2024/01/25 11:20:28;;;;;;;14.35;3.70;;;10.10;99.90;;;;;;5009327;28;20334;-19
2024/01/25 11:23:02;;;;;;;10.10;4.20;;;10.10;99.90;;;;;;5008356;28;20490;-18
2024/01/25 11:25:30;;;;;;;10.85;3.40;;;9.30;99.90;;;;;;4992166;28;20030;-19
2024/01/25 11:27:56;;;;;;;11.82;4.13;;;10.20;99.90;;;;;;5010453;28;20061;-19
2024/01/25 11:30:22;;;;;;;10.80;4.00;;;10.20;99.90;;;;;;5007313;28;20033;-19
2024/01/25 11:32:48;;;;;;;13.87;4.57;;;10.20;99.90;;;;;;5013222;28;20095;-19
2024/01/25 11:35:18;;;;;;;13.57;4.45;;;10.20;99.90;;;;;;5012476;28;20231;-18
2024/01/25 11:37:48;;;;;;;11.35;4.35;;;10.30;99.90;;;;;;5012746;28;20311;-18
2024/01/25 11:40:15;;;;;;;11.20;3.95;;;10.40;99.90;;;;;;4998455;28;20137;-19
2024/01/25 11:42:43;;;;;;;13.40;4.17;;;10.40;99.90;;;;;;4982408;28;20037;-20
2024/01/25 11:45:14;;;;;;;9.57;3.50;;;10.50;99.90;;;;;;5009160;28;20293;-19
2024/01/25 11:47:41;;;;;;;11.40;3.60;;;10.50;99.90;;;;;;5009815;28;20037;-20
2024/01/25 11:50:08;;;;;;;11.30;3.05;;;10.60;99.90;;;;;;5008435;28;20426;-19
2024/01/25 11:52:34;;;;;;;10.88;4.03;;;10.60;99.90;;;;;;4991903;28;20049;-21
2024/01/25 11:55:04;;;;;;;10.90;3.63;;;10.70;99.90;;;;;;4988986;28;20541;-18
2024/01/25 11:57:31;;;;;;;9.65;3.40;;;10.80;99.90;;;;;;4992728;28;20049;-20
2024/01/25 11:59:58;;;;;;;10.45;3.65;;;10.80;99.90;;;;;;4990402;28;20035;-19
2024/01/25 12:02:24;;;;;;;8.50;2.90;;;10.90;99.90;;;;;;4990148;28;20125;-20
2024/01/25 12:04:50;;;;;;;11.23;4.03;;;10.90;99.90;;;;;;4991521;28;20093;-19
2024/01/25 12:07:16;;;;;;;13.97;4.00;;;11.00;99.90;;;;;;4974676;28;20037;-21
2024/01/25 12:09:41;;;;;;;12.68;3.80;;;11.00;99.90;;;;;;4981717;28;20100;-19
2024/01/25 12:12:10;;;;;;;10.03;3.60;;;11.80;99.90;;;;;;4991309;28;20088;-17
2024/01/25 12:14:36;;;;;;;10.13;3.40;;;11.10;99.90;;;;;;4992660;28;20263;-19
2024/01/25 12:17:04;;;;;;;10.55;3.60;;;11.10;99.90;;;;;;4991911;28;20039;-18
2024/01/25 12:19:29;;;;;;;7.18;2.72;;;11.20;99.90;;;;;;4993810;28;20037;-18
2024/01/25 12:21:56;;;;;;;7.93;3.30;;;11.20;99.90;;;;;;4993426;28;20030;-24
2024/01/25 12:24:22;;;;;;;9.18;3.22;;;11.20;99.90;;;;;;4990689;28;20061;-22
2024/01/25 12:26:48;;;;;;;10.97;4.00;;;11.20;99.90;;;;;;4989515;28;20101;-20
2024/01/25 12:29:13;;;;;;;10.40;3.42;;;11.20;99.90;;;;;;4979525;28;20542;-24
2024/01/25 12:31:39;;;;;;;11.23;3.80;;;11.20;99.90;;;;;;4989272;28;20644;-24
2024/01/25 12:34:14;;;;;;;12.43;3.70;;;11.20;99.90;;;;;;4988888;28;20038;-21
2024/01/25 12:36:40;;;;;;;8.40;2.90;;;11.20;99.90;;;;;;4971358;28;21554;-23
2024/01/25 12:39:06;;;;;;;11.03;3.30;;;11.20;99.90;;;;;;4990778;28;20629;-20
2024/01/25 12:41:32;;;;;;;9.02;3.38;;;10.90;99.90;;;;;;4992674;28;20049;-20
2024/01/25 12:43:58;;;;;;;10.20;3.30;;;11.20;99.90;;;;;;4990754;28;20031;-19
2024/01/25 12:46:24;;;;;;;8.20;3.07;;;11.20;99.90;;;;;;4974024;28;20284;-20
2024/01/25 12:48:54;;;;;;;11.10;3.30;;;11.30;99.90;;;;;;4973786;28;20034;-19
2024/01/25 12:51:20;;;;;;;9.25;3.40;;;11.30;99.90;;;;;;4987757;28;20060;-19
2024/01/25 12:53:50;;;;;;;7.82;2.58;;;11.30;99.90;;;;;;5009986;28;20037;-18
2024/01/25 12:56:15;;;;;;;7.45;3.10;;;11.30;99.90;;;;;;5011499;28;20033;-18
2024/01/25 12:58:41;;;;;;;5.70;2.07;;;11.30;99.90;;;;;;5010640;28;20049;-18
2024/01/25 13:01:07;;;;;;;12.17;3.27;;;11.30;99.90;;;;;;5012213;28;20049;-19
2024/01/25 13:03:32;;;;;;;8.32;2.72;;;11.30;99.90;;;;;;5008658;28;20366;-17